Weather at Saint-Mathieu-de-Laprairie Aerodrome

Public forecast

Using degrees Celsius for public forecast. Weather courtesy of forecast.io.

Closest aviation weather report (METAR) to Saint-Mathieu-de-Laprairie Aerodrome

Closest report is Montreal / Pierre Elliott Trudeau International Airport, 12.0 nm (22.1 km) NW.

2024/05/21 00:00 (retrieved 49 minutes ago)

CYUL 210000Z 28006KT 30SM SCT200 BKN250 27/13 A2985 RMK CC4CI1 SLP111 DENSITY ALT 1700FT

Closest aviation forecast (TAF) to Saint-Mathieu-de-Laprairie Aerodrome

Closest forecast is Trois-Rivières Airport, 72.7 nm (134.6 km) NNE.

2024/05/20 20:00 (retrieved 5 hours ago)

TAF CYRQ 201951Z 2020/2108 21010G20KT P6SM FEW060 BKN180 TEMPO 2020/2024 P6SM -SHRA BKN060 FM210100 31005KT P6SM SCT150 RMK FCST BASED ON AUTO OBS NXT FCST BY 210200Z